Belle Center, Ohio
Current Conditions -  °F | °C
As of 11:30 AM on Monday 26 Jan 2015 (Local Time) from KEDJ Reporting Station
Broken Clouds Broken Clouds  
Wind Chill: -1°   Ceiling: 1000
Heat Index: 14°   Visibility: 8mi
Dew Point: 10°   Wind: 14mph
Humidity: 86%   Direction: 340°NNW
Pressure: 29.9"   Gusts: NA
Location:  40.51°N, 83.75°W
Report Text: KEDJ 261630Z AUTO 34012KT 8SM BKN010 M10/M12 A2990 RMK AO1
Loading
Personal Weather Stations






























Interactive Weather Map New forecast layout! Learn more

10-Day Weather Forecast

Advertisements
Track Severe Weather on mobile